Time;durP1;ratioP1;P1;durP2;ratioP2;P2;SDS_P1;SDS_P2;PMS_P1;PMS_P2;Temp;Humidity;BMP_temperature;BMP_pressure;BME280_temperature;BME280_humidity;BME280_pressure;Samples;Min_cycle;Max_cycle;Signal;HPM_P1;HPM_P2
2023/01/05 00:01:07;;;;;;;0.47;0.32;;;;;;;;;;4874747;29;20488;-78
2023/01/05 00:03:34;;;;;;;1.05;0.38;;;;;;;;;;4923151;29;20048;-78
2023/01/05 00:06:07;;;;;;;0.20;0.20;;;;;;;;;;4899925;28;20062;-77
2023/01/05 00:08:34;;;;;;;0.40;0.28;;;;;;;;;;4914009;29;20052;-78
2023/01/05 00:22:29;;;;;;;1.38;0.28;;;;;;;;;;4910117;29;20064;-77
2023/01/05 00:24:58;;;;;;;1.38;0.30;;;;;;;;;;4909978;28;20135;-77
2023/01/05 00:27:30;;;;;;;0.20;0.10;;;;;;;;;;4897465;29;20079;-77
2023/01/05 00:29:58;;;;;;;0.30;0.20;;;;;;;;;;4894744;29;20107;-77
2023/01/05 00:32:26;;;;;;;1.10;0.15;;;;;;;;;;4892154;28;20057;-76
2023/01/05 00:34:54;;;;;;;0.57;0.13;;;;;;;;;;4912647;28;20058;-78
2023/01/05 00:37:23;;;;;;;1.13;0.20;;;;;;;;;;4910646;29;20052;-77
2023/01/05 00:39:50;;;;;;;0.10;0.10;;;;;;;;;;4906398;29;20515;-77
2023/01/05 00:42:18;;;;;;;0.20;0.20;;;;;;;;;;4908993;29;20688;-78
2023/01/05 00:44:45;;;;;;;0.50;0.30;;;;;;;;;;4907031;28;20058;-77
2023/01/05 00:47:13;;;;;;;0.10;0.08;;;;;;;;;;4911288;29;20090;-77
2023/01/05 00:49:40;;;;;;;0.28;0.10;;;;;;;;;;4904638;29;20082;-74
2023/01/05 00:52:07;;;;;;;0.32;0.20;;;;;;;;;;4922675;29;20084;-76
2023/01/05 00:54:34;;;;;;;0.30;0.30;;;;;;;;;;4891734;28;20056;-76
2023/01/05 00:57:01;;;;;;;0.20;0.15;;;;;;;;;;4904805;29;20173;-76
2023/01/05 00:59:28;;;;;;;0.60;0.20;;;;;;;;;;4878870;28;20049;-76
2023/01/05 01:01:56;;;;;;;0.25;0.10;;;;;;;;;;4907945;29;20139;-76
2023/01/05 01:04:23;;;;;;;0.40;0.20;;;;;;;;;;4911044;29;20063;-76
2023/01/05 01:06:50;;;;;;;0.30;0.20;;;;;;;;;;4896653;29;20084;-76
2023/01/05 01:09:17;;;;;;;0.30;0.20;;;;;;;;;;4907208;29;20063;-77
2023/01/05 01:11:44;;;;;;;0.20;0.20;;;;;;;;;;4911547;28;20582;-77
2023/01/05 01:14:12;;;;;;;0.32;0.10;;;;;;;;;;4905934;29;20143;-77
2023/01/05 01:16:41;;;;;;;0.40;0.20;;;;;;;;;;4897387;29;20844;-78
2023/01/05 01:19:11;;;;;;;0.13;0.10;;;;;;;;;;4889835;28;20056;-77
2023/01/05 01:21:38;;;;;;;1.35;0.20;;;;;;;;;;4907760;29;20131;-77
2023/01/05 01:24:06;;;;;;;0.10;0.10;;;;;;;;;;4909577;29;20094;-77
2023/01/05 01:26:33;;;;;;;0.35;0.10;;;;;;;;;;4904122;28;20056;-77
2023/01/05 01:29:00;;;;;;;0.30;0.25;;;;;;;;;;4907669;29;20480;-78
2023/01/05 01:31:27;;;;;;;0.20;0.20;;;;;;;;;;4958409;28;20495;-77
2023/01/05 01:33:54;;;;;;;0.88;0.10;;;;;;;;;;4899560;28;20055;-78
2023/01/05 01:36:22;;;;;;;0.10;0.10;;;;;;;;;;4900893;29;20056;-77
2023/01/05 01:38:49;;;;;;;0.60;0.15;;;;;;;;;;4908501;28;20052;-77
2023/01/05 01:41:16;;;;;;;0.10;0.10;;;;;;;;;;4878437;29;20055;-77
2023/01/05 01:43:55;;;;;;;0.77;0.10;;;;;;;;;;4903255;29;20587;-77
2023/01/05 01:46:24;;;;;;;0.10;0.10;;;;;;;;;;4912366;28;20081;-76
2023/01/05 01:48:56;;;;;;;0.38;0.13;;;;;;;;;;4906399;28;20052;-76
2023/01/05 01:51:36;;;;;;;0.20;0.10;;;;;;;;;;4897750;29;20514;-77
2023/01/05 01:54:05;;;;;;;0.20;0.10;;;;;;;;;;4909212;29;20241;-78
2023/01/05 01:56:40;;;;;;;0.45;0.13;;;;;;;;;;4894628;28;20071;-78
2023/01/05 01:59:08;;;;;;;0.25;0.17;;;;;;;;;;4891634;29;20432;-77
2023/01/05 02:01:35;;;;;;;0.40;0.20;;;;;;;;;;4879162;28;20431;-78
2023/01/05 02:04:02;;;;;;;0.05;0.05;;;;;;;;;;4898389;29;20058;-77
2023/01/05 02:06:29;;;;;;;0.10;0.10;;;;;;;;;;4918225;29;20363;-77
2023/01/05 02:08:56;;;;;;;0.20;0.17;;;;;;;;;;4909927;29;20086;-78
2023/01/05 02:11:36;;;;;;;0.15;0.10;;;;;;;;;;4928536;28;20087;-77
2023/01/05 02:14:19;;;;;;;1.42;0.10;;;;;;;;;;4911633;29;20060;-77
2023/01/05 02:16:58;;;;;;;0.22;0.10;;;;;;;;;;4904707;28;20086;-77
2023/01/05 02:19:42;;;;;;;0.30;0.20;;;;;;;;;;4920062;28;20083;-76
2023/01/05 02:22:12;;;;;;;0.10;0.10;;;;;;;;;;4905821;29;20143;-76
2023/01/05 02:24:59;;;;;;;0.40;0.10;;;;;;;;;;4926529;29;20159;-77
2023/01/05 02:27:43;;;;;;;0.10;0.10;;;;;;;;;;4888484;28;20078;-77
2023/01/05 02:30:25;;;;;;;0.38;0.30;;;;;;;;;;4920855;29;20508;-77
2023/01/05 02:33:04;;;;;;;0.57;0.20;;;;;;;;;;4939115;29;20032;-77
2023/01/05 02:35:40;;;;;;;0.38;0.10;;;;;;;;;;4908094;29;20087;-78
2023/01/05 02:38:10;;;;;;;0.52;0.25;;;;;;;;;;4890591;29;20091;-78
2023/01/05 02:40:41;;;;;;;0.05;0.05;;;;;;;;;;4920039;29;20076;-77
2023/01/05 02:43:10;;;;;;;0.10;0.10;;;;;;;;;;4889749;29;20070;-77
2023/01/05 02:45:37;;;;;;;0.00;0.00;;;;;;;;;;4904289;29;20083;-77
2023/01/05 02:48:04;;;;;;;0.00;0.00;;;;;;;;;;4903515;29;20102;-77
2023/01/05 02:50:43;;;;;;;0.20;0.10;;;;;;;;;;4890227;29;20052;-77
2023/01/05 02:53:19;;;;;;;0.10;0.00;;;;;;;;;;4937414;29;20098;-77
2023/01/05 02:55:55;;;;;;;0.38;0.10;;;;;;;;;;4926587;29;20092;-78
2023/01/05 02:58:30;;;;;;;0.25;0.10;;;;;;;;;;4917819;29;20055;-77
2023/01/05 03:01:00;;;;;;;0.08;0.03;;;;;;;;;;4887878;28;20052;-77
2023/01/05 03:03:37;;;;;;;0.10;0.10;;;;;;;;;;4906420;28;20055;-78
2023/01/05 03:06:14;;;;;;;0.10;0.05;;;;;;;;;;4903351;29;20159;-77
2023/01/05 03:08:52;;;;;;;0.20;0.10;;;;;;;;;;4902925;29;20139;-78
2023/01/05 03:14:11;;;;;;;0.20;0.20;;;;;;;;;;4909382;29;20138;-77
2023/01/05 03:16:38;;;;;;;1.27;0.10;;;;;;;;;;4892767;28;20098;-77
2023/01/05 03:36:06;;;;;;;;;;;;;;;;;;4901020;29;20062;-77
2023/01/05 03:38:36;;;;;;;0.10;0.10;;;;;;;;;;4920754;29;19958;-77
2023/01/05 03:41:04;;;;;;;0.13;0.10;;;;;;;;;;4911787;28;20483;-75
2023/01/05 03:43:35;;;;;;;0.00;0.00;;;;;;;;;;4887833;28;20467;-75
2023/01/05 03:46:12;;;;;;;0.25;0.10;;;;;;;;;;4936070;29;20174;-75
2023/01/05 03:48:40;;;;;;;0.00;0.00;;;;;;;;;;4891767;29;20059;-75
2023/01/05 03:51:07;;;;;;;0.20;0.10;;;;;;;;;;4908323;29;20052;-77
2023/01/05 03:53:35;;;;;;;0.88;0.17;;;;;;;;;;4876007;29;20109;-77
2023/01/05 03:56:02;;;;;;;0.08;0.08;;;;;;;;;;4906164;29;20075;-77
2023/01/05 03:58:29;;;;;;;0.75;0.20;;;;;;;;;;4894329;28;20076;-76
2023/01/05 04:00:57;;;;;;;0.20;0.20;;;;;;;;;;4878682;29;20450;-75
2023/01/05 04:03:25;;;;;;;0.43;0.08;;;;;;;;;;4909635;28;20055;-75
2023/01/05 04:05:57;;;;;;;0.28;0.10;;;;;;;;;;4908438;28;20060;-75
2023/01/05 04:08:25;;;;;;;0.03;0.03;;;;;;;;;;4920645;28;20062;-75
2023/01/05 04:10:52;;;;;;;0.03;0.00;;;;;;;;;;4924687;28;20519;-75
2023/01/05 04:13:19;;;;;;;0.68;0.13;;;;;;;;;;4901757;29;20052;-75
2023/01/05 04:15:47;;;;;;;0.05;0.05;;;;;;;;;;4879604;28;20055;-75
2023/01/05 04:18:14;;;;;;;0.32;0.17;;;;;;;;;;4902933;29;20483;-74
2023/01/05 04:20:41;;;;;;;1.00;0.17;;;;;;;;;;4890997;29;20492;-75
2023/01/05 04:23:08;;;;;;;0.10;0.10;;;;;;;;;;4899124;29;20079;-75
2023/01/05 04:25:35;;;;;;;0.60;0.52;;;;;;;;;;4909278;29;20559;-76
2023/01/05 04:28:02;;;;;;;0.63;0.10;;;;;;;;;;4896217;29;20098;-75
2023/01/05 04:30:29;;;;;;;0.40;0.10;;;;;;;;;;4895327;29;20137;-75
2023/01/05 04:32:56;;;;;;;0.10;0.10;;;;;;;;;;4877069;28;20047;-76
2023/01/05 04:35:24;;;;;;;0.52;0.10;;;;;;;;;;4899027;28;20052;-76
2023/01/05 04:37:51;;;;;;;0.20;0.10;;;;;;;;;;4972456;28;20176;-76
2023/01/05 04:40:18;;;;;;;0.03;0.03;;;;;;;;;;4888481;29;20090;-76
2023/01/05 04:42:46;;;;;;;0.10;0.00;;;;;;;;;;4905124;29;20414;-76
2023/01/05 04:45:13;;;;;;;0.10;0.10;;;;;;;;;;4887934;29;20079;-76
2023/01/05 04:47:40;;;;;;;0.00;0.00;;;;;;;;;;4903176;28;20055;-76
2023/01/05 04:50:08;;;;;;;0.13;0.08;;;;;;;;;;4915831;29;20492;-76
2023/01/05 04:52:35;;;;;;;0.50;0.10;;;;;;;;;;4890821;29;20062;-76
2023/01/05 04:55:03;;;;;;;1.20;0.00;;;;;;;;;;4903460;29;20056;-77
2023/01/05 04:57:30;;;;;;;0.10;0.10;;;;;;;;;;4892493;29;20055;-77
2023/01/05 05:00:35;;;;;;;0.05;0.05;;;;;;;;;;4895067;29;20067;-77
2023/01/05 05:03:03;;;;;;;0.25;0.10;;;;;;;;;;4911666;28;20508;-76
2023/01/05 05:05:30;;;;;;;0.57;0.20;;;;;;;;;;4923441;29;20060;-76
2023/01/05 05:07:57;;;;;;;0.03;0.03;;;;;;;;;;4889368;29;20431;-76
2023/01/05 05:10:24;;;;;;;0.20;0.10;;;;;;;;;;4898431;28;20708;-76
2023/01/05 05:12:51;;;;;;;0.00;0.00;;;;;;;;;;4969246;28;20056;-76
2023/01/05 05:15:19;;;;;;;0.13;0.08;;;;;;;;;;4902799;28;20051;-76
2023/01/05 05:17:47;;;;;;;0.73;0.05;;;;;;;;;;4901680;28;20059;-76
2023/01/05 05:20:14;;;;;;;1.10;0.03;;;;;;;;;;4907428;29;20435;-77
2023/01/05 05:22:41;;;;;;;0.10;0.10;;;;;;;;;;4877020;28;20066;-76
2023/01/05 05:25:09;;;;;;;0.35;0.30;;;;;;;;;;4877114;28;20052;-77
2023/01/05 05:27:36;;;;;;;0.30;0.30;;;;;;;;;;4891846;29;20135;-77
2023/01/05 05:30:04;;;;;;;0.30;0.20;;;;;;;;;;4907659;29;20574;-78
2023/01/05 05:32:31;;;;;;;0.05;0.05;;;;;;;;;;4905771;29;20052;-77
2023/01/05 05:34:58;;;;;;;1.10;0.28;;;;;;;;;;4893952;29;20179;-77
2023/01/05 05:37:28;;;;;;;0.10;0.10;;;;;;;;;;4888880;29;20607;-76
2023/01/05 05:39:56;;;;;;;0.17;0.10;;;;;;;;;;4888311;29;20147;-76
2023/01/05 05:42:23;;;;;;;0.10;0.10;;;;;;;;;;4893258;29;20056;-76
2023/01/05 05:45:01;;;;;;;0.00;0.00;;;;;;;;;;4878008;29;20079;-76
2023/01/05 05:47:28;;;;;;;0.73;0.15;;;;;;;;;;4902449;29;20048;-76
2023/01/05 05:49:56;;;;;;;0.05;0.00;;;;;;;;;;4919064;28;20052;-77
2023/01/05 05:52:23;;;;;;;0.45;0.20;;;;;;;;;;4904960;28;20066;-77
2023/01/05 05:54:53;;;;;;;1.58;0.68;;;;;;;;;;4907663;29;20135;-77
2023/01/05 05:57:20;;;;;;;2.03;0.60;;;;;;;;;;4912002;28;20121;-78
2023/01/05 05:59:47;;;;;;;2.83;0.40;;;;;;;;;;4906572;29;20047;-77
2023/01/05 06:02:15;;;;;;;3.38;0.30;;;;;;;;;;4910905;29;20123;-77
2023/01/05 06:04:42;;;;;;;2.47;0.30;;;;;;;;;;4913900;28;20105;-77
2023/01/05 06:07:10;;;;;;;2.53;0.40;;;;;;;;;;4906509;29;20052;-77
2023/01/05 06:09:37;;;;;;;1.55;0.45;;;;;;;;;;4891219;29;20447;-77
2023/01/05 06:12:04;;;;;;;0.98;0.30;;;;;;;;;;4888189;28;20048;-77
2023/01/05 06:14:31;;;;;;;3.17;0.60;;;;;;;;;;4893031;29;20106;-77
2023/01/05 06:16:59;;;;;;;1.83;0.52;;;;;;;;;;4892309;28;20062;-76
2023/01/05 06:19:26;;;;;;;3.08;0.70;;;;;;;;;;4901805;29;20618;-77
2023/01/05 06:21:53;;;;;;;1.95;0.40;;;;;;;;;;4899947;29;20056;-77
2023/01/05 06:24:20;;;;;;;1.88;0.55;;;;;;;;;;4894936;28;20091;-76
2023/01/05 06:26:48;;;;;;;4.88;0.80;;;;;;;;;;4888657;29;20082;-77
2023/01/05 06:29:15;;;;;;;2.40;1.15;;;;;;;;;;4876718;28;20429;-76
2023/01/05 06:31:42;;;;;;;4.63;0.60;;;;;;;;;;4890348;29;20066;-76
2023/01/05 06:34:09;;;;;;;3.50;0.60;;;;;;;;;;4903272;29;20110;-76
2023/01/05 06:36:36;;;;;;;4.18;0.75;;;;;;;;;;4904120;29;20134;-76
2023/01/05 06:39:03;;;;;;;4.82;1.70;;;;;;;;;;4885586;28;20066;-76
2023/01/05 06:41:31;;;;;;;3.38;0.85;;;;;;;;;;4888475;29;20508;-76
2023/01/05 06:43:58;;;;;;;5.85;1.75;;;;;;;;;;4896215;29;20052;-76
2023/01/05 06:46:25;;;;;;;8.48;1.00;;;;;;;;;;4895168;29;20051;-76
2023/01/05 06:48:52;;;;;;;3.35;0.98;;;;;;;;;;4892107;29;20135;-76
2023/01/05 06:51:19;;;;;;;5.25;2.25;;;;;;;;;;4870899;29;20056;-75
2023/01/05 06:53:46;;;;;;;4.80;0.80;;;;;;;;;;4917156;28;20056;-75
2023/01/05 06:56:14;;;;;;;5.18;1.00;;;;;;;;;;4902830;29;20064;-75
2023/01/05 06:58:41;;;;;;;3.67;0.90;;;;;;;;;;4911915;29;20112;-75
2023/01/05 07:01:08;;;;;;;2.50;0.95;;;;;;;;;;4936578;29;20424;-76
2023/01/05 07:03:35;;;;;;;3.17;0.80;;;;;;;;;;4895100;28;20110;-74
2023/01/05 07:06:03;;;;;;;4.05;1.05;;;;;;;;;;4925733;29;20059;-76
2023/01/05 07:08:34;;;;;;;7.40;1.63;;;;;;;;;;4868129;28;20460;-77
2023/01/05 07:11:00;;;;;;;3.95;1.00;;;;;;;;;;4883056;29;20056;-78
2023/01/05 07:13:27;;;;;;;3.50;1.33;;;;;;;;;;4873158;29;20056;-80
2023/01/05 07:15:54;;;;;;;5.35;1.35;;;;;;;;;;4889670;29;20389;-78
2023/01/05 07:18:21;;;;;;;4.22;1.20;;;;;;;;;;4892842;29;20546;-78
2023/01/05 07:20:47;;;;;;;4.15;1.20;;;;;;;;;;4879957;29;20063;-77
2023/01/05 07:23:14;;;;;;;4.05;1.30;;;;;;;;;;4897060;29;20532;-78
2023/01/05 07:25:41;;;;;;;5.95;1.52;;;;;;;;;;4866156;29;20060;-77
2023/01/05 07:28:07;;;;;;;5.15;1.38;;;;;;;;;;4978298;28;20052;-77
2023/01/05 07:30:34;;;;;;;7.43;1.60;;;;;;;;;;4900287;29;20056;-76
2023/01/05 07:33:01;;;;;;;5.90;1.10;;;;;;;;;;4898473;29;20052;-76
2023/01/05 07:35:28;;;;;;;5.07;1.15;;;;;;;;;;4903568;29;20393;-77
2023/01/05 07:37:55;;;;;;;4.93;0.90;;;;;;;;;;4885585;29;20365;-77
2023/01/05 07:40:22;;;;;;;5.60;0.80;;;;;;;;;;4917526;29;20142;-78
2023/01/05 07:42:50;;;;;;;6.30;0.98;;;;;;;;;;4883767;29;20063;-77
2023/01/05 07:45:18;;;;;;;3.35;1.08;;;;;;;;;;4915030;29;20052;-77
2023/01/05 07:47:45;;;;;;;3.45;0.88;;;;;;;;;;4912047;29;20060;-77
2023/01/05 07:50:12;;;;;;;6.13;1.67;;;;;;;;;;4896204;28;20428;-77
2023/01/05 07:52:39;;;;;;;4.05;0.93;;;;;;;;;;4919062;28;20063;-77
2023/01/05 07:55:06;;;;;;;6.03;2.00;;;;;;;;;;4915429;28;20056;-77
2023/01/05 07:57:32;;;;;;;4.03;1.05;;;;;;;;;;4915519;29;20062;-78
2023/01/05 07:59:59;;;;;;;4.85;1.13;;;;;;;;;;4933026;28;20063;-78
2023/01/05 08:02:26;;;;;;;8.27;1.33;;;;;;;;;;4917034;29;20067;-77
2023/01/05 08:05:01;;;;;;;9.25;1.52;;;;;;;;;;4902402;29;20056;-81
2023/01/05 08:07:27;;;;;;;4.15;0.77;;;;;;;;;;4903891;29;20052;-77
2023/01/05 08:15:24;;;;;;;3.17;1.25;;;;;;;;;;4922764;29;20376;-79
2023/01/05 08:17:51;;;;;;;3.80;1.10;;;;;;;;;;4920397;29;20062;-79
2023/01/05 08:20:18;;;;;;;5.47;1.27;;;;;;;;;;4888601;29;20052;-80
2023/01/05 08:22:50;;;;;;;5.90;1.15;;;;;;;;;;4920780;29;20059;-80
2023/01/05 08:25:17;;;;;;;4.38;1.75;;;;;;;;;;4887829;29;20055;-80
2023/01/05 08:27:44;;;;;;;3.65;0.85;;;;;;;;;;4887809;28;20064;-80
2023/01/05 08:30:12;;;;;;;8.18;1.30;;;;;;;;;;4910247;28;20066;-80
2023/01/05 08:32:39;;;;;;;4.35;1.55;;;;;;;;;;4940415;28;20423;-80
2023/01/05 08:35:06;;;;;;;4.85;1.35;;;;;;;;;;4914067;28;20064;-78
2023/01/05 08:37:33;;;;;;;7.60;1.77;;;;;;;;;;4918260;28;20068;-77
2023/01/05 08:40:01;;;;;;;7.78;1.77;;;;;;;;;;4915908;28;20059;-80
2023/01/05 08:42:28;;;;;;;5.57;1.40;;;;;;;;;;4883345;28;20055;-80
2023/01/05 08:44:55;;;;;;;9.13;1.85;;;;;;;;;;4882828;29;20052;-80
2023/01/05 08:47:22;;;;;;;4.88;1.48;;;;;;;;;;4913332;29;20047;-79
2023/01/05 08:49:54;;;;;;;8.68;1.83;;;;;;;;;;4901181;28;20054;-80
2023/01/05 08:52:22;;;;;;;9.18;2.55;;;;;;;;;;4914576;29;20059;-81
2023/01/05 08:54:49;;;;;;;4.70;1.20;;;;;;;;;;4915795;28;20106;-79
2023/01/05 08:57:16;;;;;;;10.23;2.05;;;;;;;;;;4904987;29;20067;-77
2023/01/05 08:59:43;;;;;;;7.60;2.53;;;;;;;;;;4910931;29;20063;-78
2023/01/05 09:02:11;;;;;;;10.10;2.25;;;;;;;;;;4911465;28;20055;-78
2023/01/05 09:04:38;;;;;;;7.80;3.13;;;;;;;;;;4924820;28;20056;-78
2023/01/05 09:07:05;;;;;;;6.63;2.25;;;;;;;;;;4881185;29;20056;-77
2023/01/05 09:09:31;;;;;;;4.80;1.77;;;;;;;;;;4876593;29;20127;-78
2023/01/05 09:11:58;;;;;;;6.40;1.05;;;;;;;;;;4875984;28;20040;-76
2023/01/05 09:14:25;;;;;;;5.18;1.92;;;;;;;;;;4904099;29;20064;-77
2023/01/05 09:16:52;;;;;;;6.43;1.10;;;;;;;;;;4910256;28;20060;-77
2023/01/05 09:19:35;;;;;;;8.40;1.25;;;;;;;;;;4910605;29;20478;-76
2023/01/05 09:22:02;;;;;;;6.20;1.92;;;;;;;;;;4891050;29;20135;-77
2023/01/05 09:24:29;;;;;;;9.63;1.52;;;;;;;;;;4899684;28;20205;-77
2023/01/05 09:26:56;;;;;;;6.57;1.60;;;;;;;;;;4900027;28;20059;-76
2023/01/05 09:29:23;;;;;;;5.60;1.15;;;;;;;;;;4910851;29;20055;-77
2023/01/05 09:31:50;;;;;;;6.60;1.30;;;;;;;;;;4903479;29;20055;-79
2023/01/05 09:34:17;;;;;;;14.38;3.15;;;;;;;;;;4900908;29;20523;-78
2023/01/05 09:36:45;;;;;;;7.75;1.90;;;;;;;;;;4901675;29;20052;-78
2023/01/05 09:39:12;;;;;;;6.90;1.50;;;;;;;;;;4871526;28;20563;-79
2023/01/05 09:41:48;;;;;;;6.25;1.25;;;;;;;;;;4886243;29;20044;-77
2023/01/05 09:44:25;;;;;;;11.13;2.20;;;;;;;;;;4915502;29;20127;-77
2023/01/05 09:46:53;;;;;;;7.75;2.17;;;;;;;;;;4924109;29;20082;-77
2023/01/05 09:49:22;;;;;;;7.78;2.05;;;;;;;;;;4926771;28;20052;-77
2023/01/05 09:51:53;;;;;;;8.98;2.08;;;;;;;;;;4906522;29;20572;-78
2023/01/05 09:54:20;;;;;;;9.50;1.67;;;;;;;;;;4889414;29;20626;-76
2023/01/05 09:56:47;;;;;;;10.43;1.75;;;;;;;;;;4885767;29;20059;-76
2023/01/05 09:59:40;;;;;;;9.70;1.40;;;;;;;;;;4895234;29;20526;-77
2023/01/05 10:02:18;;;;;;;11.10;2.03;;;;;;;;;;4935180;29;20094;-77
2023/01/05 10:04:45;;;;;;;9.57;1.52;;;;;;;;;;4906766;29;20140;-77
2023/01/05 10:07:41;;;;;;;10.43;2.70;;;;;;;;;;4877240;28;20067;-79
2023/01/05 10:10:20;;;;;;;14.85;1.98;;;;;;;;;;4899486;28;20052;-80
2023/01/05 10:13:01;;;;;;;10.93;1.80;;;;;;;;;;4900440;28;20472;-79
2023/01/05 10:15:44;;;;;;;9.10;1.52;;;;;;;;;;4893862;29;20120;-79
2023/01/05 10:18:17;;;;;;;8.77;1.67;;;;;;;;;;4891116;29;20062;-78
2023/01/05 10:20:47;;;;;;;13.13;2.08;;;;;;;;;;4879065;29;20062;-79
2023/01/05 10:23:55;;;;;;;13.93;3.42;;;;;;;;;;4925630;28;20174;-80
2023/01/05 10:26:49;;;;;;;12.10;1.88;;;;;;;;;;4907605;28;20101;-78
2023/01/05 10:29:39;;;;;;;7.18;1.60;;;;;;;;;;4913149;29;20174;-76
2023/01/05 10:32:19;;;;;;;8.40;1.63;;;;;;;;;;4917801;29;20144;-75
2023/01/05 10:35:18;;;;;;;9.63;1.88;;;;;;;;;;4889481;28;20047;-76
2023/01/05 10:38:28;;;;;;;9.63;1.63;;;;;;;;;;4922408;28;20075;-77
2023/01/05 10:41:31;;;;;;;10.80;1.83;;;;;;;;;;4920095;29;20052;-77
2023/01/05 10:44:35;;;;;;;9.52;1.70;;;;;;;;;;4896494;28;20761;-77
2023/01/05 10:47:05;;;;;;;10.63;1.80;;;;;;;;;;4908082;29;20440;-77
2023/01/05 10:49:32;;;;;;;9.15;1.65;;;;;;;;;;4876137;29;20048;-77
2023/01/05 10:52:00;;;;;;;11.10;1.77;;;;;;;;;;4878766;29;20102;-80
2023/01/05 10:54:46;;;;;;;12.98;1.77;;;;;;;;;;4884751;29;20507;-79
2023/01/05 10:57:31;;;;;;;8.63;2.22;;;;;;;;;;4887621;29;20064;-78
2023/01/05 11:00:19;;;;;;;12.20;3.00;;;;;;;;;;4956222;29;20048;-79
2023/01/05 11:02:58;;;;;;;15.43;1.67;;;;;;;;;;4929060;28;20736;-81
2023/01/05 11:05:45;;;;;;;8.85;1.70;;;;;;;;;;4909683;28;20114;-79
2023/01/05 11:08:43;;;;;;;9.18;1.70;;;;;;;;;;4916563;29;20052;-79
2023/01/05 11:11:11;;;;;;;18.08;4.70;;;;;;;;;;4927018;28;20036;-78
2023/01/05 11:13:39;;;;;;;10.93;2.00;;;;;;;;;;4980840;28;20118;-79
2023/01/05 11:16:12;;;;;;;9.10;1.92;;;;;;;;;;4889448;29;20063;-78
2023/01/05 11:18:52;;;;;;;10.60;1.95;;;;;;;;;;4924167;28;20365;-79
2023/01/05 11:21:30;;;;;;;9.13;2.05;;;;;;;;;;4902364;29;20052;-79
2023/01/05 11:24:04;;;;;;;12.50;3.00;;;;;;;;;;4930143;29;20068;-79
2023/01/05 11:26:37;;;;;;;6.82;1.60;;;;;;;;;;4907737;28;20056;-79
2023/01/05 11:29:07;;;;;;;;;;;;;;;;;;4920971;29;20052;-78
2023/01/05 11:31:47;;;;;;;9.20;1.63;;;;;;;;;;4918388;28;19933;-79
2023/01/05 11:34:35;;;;;;;12.27;2.78;;;;;;;;;;4947566;29;20127;-79
2023/01/05 11:37:19;;;;;;;8.38;2.30;;;;;;;;;;4932386;28;20079;-79
2023/01/05 11:39:55;;;;;;;9.60;2.38;;;;;;;;;;4921917;29;20051;-79
2023/01/05 11:42:22;;;;;;;10.13;1.73;;;;;;;;;;4921487;28;20524;-79
2023/01/05 11:45:20;;;;;;;8.38;1.75;;;;;;;;;;4921800;28;20083;-80
2023/01/05 11:48:04;;;;;;;10.13;2.05;;;;;;;;;;4931901;28;20063;-79
2023/01/05 11:50:52;;;;;;;12.88;1.85;;;;;;;;;;4935184;29;20097;-80
2023/01/05 11:53:32;;;;;;;14.10;2.20;;;;;;;;;;4921080;28;20117;-79
2023/01/05 11:56:24;;;;;;;9.75;1.98;;;;;;;;;;4919252;29;20073;-80
2023/01/05 11:58:56;;;;;;;12.25;2.30;;;;;;;;;;4917112;29;20064;-79
2023/01/05 12:01:52;;;;;;;10.57;1.80;;;;;;;;;;4884768;29;20080;-79
2023/01/05 12:04:41;;;;;;;9.55;1.58;;;;;;;;;;4920850;29;20056;-79
2023/01/05 12:07:22;;;;;;;8.73;1.55;;;;;;;;;;4933447;29;20056;-80
2023/01/05 12:10:18;;;;;;;7.57;2.08;;;;;;;;;;4921232;29;20057;-80
2023/01/05 12:13:22;;;;;;;14.65;2.28;;;;;;;;;;4917505;29;20052;-79
2023/01/05 12:16:02;;;;;;;10.40;2.22;;;;;;;;;;4930570;28;20373;-79
2023/01/05 12:18:46;;;;;;;9.57;1.90;;;;;;;;;;4920087;29;20090;-78
2023/01/05 12:21:22;;;;;;;11.00;2.15;;;;;;;;;;4950254;28;20052;-79
2023/01/05 12:24:27;;;;;;;7.78;1.80;;;;;;;;;;4919455;28;20083;-79
2023/01/05 12:27:19;;;;;;;10.25;2.05;;;;;;;;;;4939811;29;20389;-80
2023/01/05 12:29:59;;;;;;;9.57;1.93;;;;;;;;;;4926869;28;20067;-79
2023/01/05 12:33:03;;;;;;;13.00;1.77;;;;;;;;;;4931572;29;20339;-81
2023/01/05 12:36:21;;;;;;;10.63;3.53;;;;;;;;;;4935963;28;20051;-79
2023/01/05 12:38:56;;;;;;;10.95;1.88;;;;;;;;;;4901189;28;20055;-79
2023/01/05 12:41:45;;;;;;;13.18;3.05;;;;;;;;;;4932725;29;20051;-79
2023/01/05 12:44:36;;;;;;;12.88;2.92;;;;;;;;;;4916839;29;20048;-79
2023/01/05 12:47:21;;;;;;;13.35;2.65;;;;;;;;;;4934438;28;20058;-78
2023/01/05 12:50:08;;;;;;;11.07;2.33;;;;;;;;;;4937342;29;20051;-79
2023/01/05 12:52:41;;;;;;;8.18;1.70;;;;;;;;;;4912419;28;20066;-79
2023/01/05 12:55:27;;;;;;;21.90;3.60;;;;;;;;;;4920226;29;20060;-78
2023/01/05 12:58:00;;;;;;;11.15;2.63;;;;;;;;;;4912230;28;20062;-77
2023/01/05 13:00:30;;;;;;;15.55;2.35;;;;;;;;;;4915960;29;20519;-78
2023/01/05 13:03:03;;;;;;;12.95;3.40;;;;;;;;;;4903461;29;20059;-77
2023/01/05 13:05:43;;;;;;;14.10;3.20;;;;;;;;;;4902985;29;20059;-77
2023/01/05 13:08:16;;;;;;;10.95;3.03;;;;;;;;;;4878880;29;20115;-77
2023/01/05 13:10:56;;;;;;;14.07;2.55;;;;;;;;;;4895354;29;20055;-77
2023/01/05 13:13:47;;;;;;;12.18;2.97;;;;;;;;;;4943392;29;20086;-77
2023/01/05 13:16:23;;;;;;;8.18;1.83;;;;;;;;;;4940998;29;20054;-77
2023/01/05 13:19:03;;;;;;;14.85;3.03;;;;;;;;;;4923248;28;20054;-77
2023/01/05 13:21:31;;;;;;;8.40;1.80;;;;;;;;;;4913825;28;20426;-78
2023/01/05 13:24:05;;;;;;;9.35;2.65;;;;;;;;;;4887002;28;20115;-78
2023/01/05 13:26:34;;;;;;;9.02;2.15;;;;;;;;;;4897030;28;20095;-77
2023/01/05 13:29:04;;;;;;;11.25;2.65;;;;;;;;;;4904105;28;20087;-76
2023/01/05 13:32:02;;;;;;;13.23;3.30;;;;;;;;;;4904172;28;20052;-77
2023/01/05 13:34:43;;;;;;;8.68;2.38;;;;;;;;;;4906151;29;20134;-77
2023/01/05 13:37:23;;;;;;;13.27;4.20;;;;;;;;;;4891819;29;20066;-76
2023/01/05 13:40:03;;;;;;;11.15;3.30;;;;;;;;;;4907446;29;20511;-78
2023/01/05 13:43:07;;;;;;;8.13;2.55;;;;;;;;;;4893119;29;20531;-78
2023/01/05 13:46:05;;;;;;;10.50;2.47;;;;;;;;;;4928694;29;20067;-77
2023/01/05 13:48:50;;;;;;;12.73;2.35;;;;;;;;;;4923915;28;20052;-77
2023/01/05 13:51:52;;;;;;;6.95;2.25;;;;;;;;;;4957344;29;20048;-76
2023/01/05 13:54:29;;;;;;;13.57;3.42;;;;;;;;;;4929772;28;20091;-77
2023/01/05 13:57:20;;;;;;;13.15;2.67;;;;;;;;;;4942370;28;20044;-76
2023/01/05 13:59:54;;;;;;;12.52;2.47;;;;;;;;;;4946552;29;20102;-79
2023/01/05 14:02:35;;;;;;;15.38;3.65;;;;;;;;;;4912104;29;20047;-78
2023/01/05 14:05:06;;;;;;;15.57;3.10;;;;;;;;;;4925860;28;20047;-77
2023/01/05 14:07:33;;;;;;;13.70;2.55;;;;;;;;;;4903048;28;20044;-78
2023/01/05 14:10:02;;;;;;;11.55;2.40;;;;;;;;;;4997204;28;20059;-77
2023/01/05 14:12:44;;;;;;;15.70;4.50;;;;;;;;;;4906770;28;20039;-77
2023/01/05 14:15:29;;;;;;;12.10;2.40;;;;;;;;;;4940972;29;20048;-77
2023/01/05 14:18:03;;;;;;;12.00;2.72;;;;;;;;;;4942438;29;20052;-77
2023/01/05 14:20:50;;;;;;;13.52;3.75;;;;;;;;;;4915173;28;20066;-77
2023/01/05 14:23:22;;;;;;;12.23;3.20;;;;;;;;;;4958937;29;20159;-77
2023/01/05 14:25:54;;;;;;;13.73;3.35;;;;;;;;;;4928777;28;20056;-76
2023/01/05 14:28:28;;;;;;;15.27;4.25;;;;;;;;;;4927354;28;20115;-76
2023/01/05 14:31:12;;;;;;;15.45;3.25;;;;;;;;;;4927873;28;20044;-77
2023/01/05 14:33:56;;;;;;;12.80;3.97;;;;;;;;;;4928844;28;20052;-77
2023/01/05 14:36:34;;;;;;;11.95;3.22;;;;;;;;;;4914113;29;20044;-77
2023/01/05 14:39:28;;;;;;;11.40;2.15;;;;;;;;;;4946343;28;20052;-77
2023/01/05 14:41:58;;;;;;;9.90;2.25;;;;;;;;;;4911770;28;20067;-77
2023/01/05 14:44:49;;;;;;;10.18;2.30;;;;;;;;;;4955732;29;20060;-77
2023/01/05 14:47:32;;;;;;;13.05;2.72;;;;;;;;;;4932671;29;20536;-77
2023/01/05 14:50:02;;;;;;;11.30;2.10;;;;;;;;;;4884323;29;20056;-77
2023/01/05 14:52:56;;;;;;;13.68;2.65;;;;;;;;;;4891257;28;20052;-77
2023/01/05 14:55:31;;;;;;;12.18;2.78;;;;;;;;;;4905220;29;20487;-77
2023/01/05 14:58:40;;;;;;;12.40;1.95;;;;;;;;;;4928878;29;20158;-77
2023/01/05 15:01:30;;;;;;;11.20;2.22;;;;;;;;;;4895477;29;20060;-77
2023/01/05 15:04:03;;;;;;;12.10;2.80;;;;;;;;;;4936720;28;20056;-77
2023/01/05 15:07:08;;;;;;;16.08;2.63;;;;;;;;;;4922054;29;20056;-77
2023/01/05 15:09:47;;;;;;;10.35;2.83;;;;;;;;;;4913459;28;20166;-78
2023/01/05 15:12:30;;;;;;;14.48;3.50;;;;;;;;;;4909442;29;20056;-77
2023/01/05 15:15:23;;;;;;;;;;;;;;;;;;4919540;29;20055;-77
2023/01/05 15:17:52;;;;;;;13.13;2.10;;;;;;;;;;4891412;29;19938;-77
2023/01/05 15:20:36;;;;;;;12.25;3.38;;;;;;;;;;4917315;28;20359;-77
2023/01/05 15:23:51;;;;;;;12.23;2.08;;;;;;;;;;4944602;29;20455;-77
2023/01/05 15:26:46;;;;;;;14.77;3.38;;;;;;;;;;4925631;28;20058;-77
2023/01/05 15:29:34;;;;;;;16.95;2.95;;;;;;;;;;4930765;29;20068;-78
2023/01/05 15:32:22;;;;;;;11.20;2.28;;;;;;;;;;4913471;29;20092;-78
2023/01/05 15:34:56;;;;;;;13.48;2.40;;;;;;;;;;4891753;29;20056;-76
2023/01/05 15:37:30;;;;;;;12.63;4.03;;;;;;;;;;4904164;29;20143;-77
2023/01/05 15:40:02;;;;;;;10.88;2.22;;;;;;;;;;4910285;29;20056;-76
2023/01/05 15:42:35;;;;;;;14.27;3.35;;;;;;;;;;4892793;29;20135;-77
2023/01/05 15:45:03;;;;;;;16.92;2.60;;;;;;;;;;4921707;29;20062;-76
2023/01/05 15:47:34;;;;;;;13.52;2.63;;;;;;;;;;4919470;29;20056;-75
2023/01/05 15:50:01;;;;;;;8.27;2.13;;;;;;;;;;4928292;29;20070;-76
2023/01/05 15:52:38;;;;;;;10.95;3.13;;;;;;;;;;4916700;29;20500;-76
2023/01/05 15:55:17;;;;;;;11.13;2.55;;;;;;;;;;4911194;29;20499;-76
2023/01/05 15:58:14;;;;;;;12.80;2.65;;;;;;;;;;4939719;29;20060;-75